sensor_id;sensor_type;location;lat;lon;timestamp;P1;durP1;ratioP1;P2;durP2;ratioP2
31282;SDS011;17915;52.540;13.604;2023-12-20T00:01:17;6.80;;;6.40;;
31282;SDS011;17915;52.540;13.604;2023-12-20T00:03:42;7.73;;;7.13;;
31282;SDS011;17915;52.540;13.604;2023-12-20T00:06:08;6.70;;;6.20;;
31282;SDS011;17915;52.540;13.604;2023-12-20T00:08:34;6.68;;;6.18;;
31282;SDS011;17915;52.540;13.604;2023-12-20T00:11:00;6.13;;;5.77;;
31282;SDS011;17915;52.540;13.604;2023-12-20T00:13:25;6.97;;;6.43;;
31282;SDS011;17915;52.540;13.604;2023-12-20T00:15:50;7.53;;;7.03;;
31282;SDS011;17915;52.540;13.604;2023-12-20T00:18:16;6.67;;;6.17;;
31282;SDS011;17915;52.540;13.604;2023-12-20T00:20:41;8.93;;;6.43;;
31282;SDS011;17915;52.540;13.604;2023-12-20T00:23:06;7.03;;;6.53;;
31282;SDS011;17915;52.540;13.604;2023-12-20T00:25:33;7.53;;;6.93;;
31282;SDS011;17915;52.540;13.604;2023-12-20T00:30:24;6.70;;;6.30;;
31282;SDS011;17915;52.540;13.604;2023-12-20T00:32:50;7.67;;;7.07;;
31282;SDS011;17915;52.540;13.604;2023-12-20T00:35:15;6.47;;;6.07;;
31282;SDS011;17915;52.540;13.604;2023-12-20T00:37:41;7.03;;;6.63;;
31282;SDS011;17915;52.540;13.604;2023-12-20T00:40:10;6.00;;;5.60;;
31282;SDS011;17915;52.540;13.604;2023-12-20T00:42:35;7.07;;;6.68;;
31282;SDS011;17915;52.540;13.604;2023-12-20T00:45:01;6.87;;;6.37;;
31282;SDS011;17915;52.540;13.604;2023-12-20T00:49:53;6.03;;;5.72;;
31282;SDS011;17915;52.540;13.604;2023-12-20T00:52:18;6.43;;;6.10;;
31282;SDS011;17915;52.540;13.604;2023-12-20T00:54:44;6.60;;;6.20;;
31282;SDS011;17915;52.540;13.604;2023-12-20T00:57:09;6.50;;;6.10;;
31282;SDS011;17915;52.540;13.604;2023-12-20T00:59:35;6.30;;;5.80;;
31282;SDS011;17915;52.540;13.604;2023-12-20T01:02:00;8.27;;;6.00;;
31282;SDS011;17915;52.540;13.604;2023-12-20T01:04:26;6.60;;;6.23;;
31282;SDS011;17915;52.540;13.604;2023-12-20T01:06:51;6.70;;;6.30;;
31282;SDS011;17915;52.540;13.604;2023-12-20T01:09:17;5.60;;;5.28;;
31282;SDS011;17915;52.540;13.604;2023-12-20T01:11:43;6.35;;;5.95;;
31282;SDS011;17915;52.540;13.604;2023-12-20T01:14:09;6.97;;;6.53;;
31282;SDS011;17915;52.540;13.604;2023-12-20T01:16:34;6.43;;;6.10;;
31282;SDS011;17915;52.540;13.604;2023-12-20T01:18:59;7.20;;;6.60;;
31282;SDS011;17915;52.540;13.604;2023-12-20T01:21:25;6.03;;;5.67;;
31282;SDS011;17915;52.540;13.604;2023-12-20T01:23:50;7.03;;;6.43;;
31282;SDS011;17915;52.540;13.604;2023-12-20T01:26:16;6.90;;;6.50;;
31282;SDS011;17915;52.540;13.604;2023-12-20T01:28:41;8.20;;;7.50;;
31282;SDS011;17915;52.540;13.604;2023-12-20T01:31:07;7.23;;;6.70;;
31282;SDS011;17915;52.540;13.604;2023-12-20T01:33:33;7.50;;;6.90;;
31282;SDS011;17915;52.540;13.604;2023-12-20T01:35:58;6.33;;;5.93;;
31282;SDS011;17915;52.540;13.604;2023-12-20T01:38:23;7.60;;;6.20;;
31282;SDS011;17915;52.540;13.604;2023-12-20T01:40:49;7.07;;;6.60;;
31282;SDS011;17915;52.540;13.604;2023-12-20T01:43:14;8.93;;;7.03;;
31282;SDS011;17915;52.540;13.604;2023-12-20T01:45:40;6.77;;;6.20;;
31282;SDS011;17915;52.540;13.604;2023-12-20T01:48:05;7.03;;;6.53;;
31282;SDS011;17915;52.540;13.604;2023-12-20T01:50:31;6.80;;;6.30;;
31282;SDS011;17915;52.540;13.604;2023-12-20T01:53:00;6.68;;;6.20;;
31282;SDS011;17915;52.540;13.604;2023-12-20T01:55:27;5.63;;;5.32;;
31282;SDS011;17915;52.540;13.604;2023-12-20T01:57:54;4.65;;;4.43;;
31282;SDS011;17915;52.540;13.604;2023-12-20T02:00:19;5.87;;;5.50;;
31282;SDS011;17915;52.540;13.604;2023-12-20T02:02:48;6.53;;;5.93;;
31282;SDS011;17915;52.540;13.604;2023-12-20T02:05:15;5.72;;;5.30;;
31282;SDS011;17915;52.540;13.604;2023-12-20T02:07:41;4.80;;;4.38;;
31282;SDS011;17915;52.540;13.604;2023-12-20T02:10:07;6.13;;;5.63;;
31282;SDS011;17915;52.540;13.604;2023-12-20T02:12:33;5.70;;;5.30;;
31282;SDS011;17915;52.540;13.604;2023-12-20T02:14:58;5.40;;;5.10;;
31282;SDS011;17915;52.540;13.604;2023-12-20T02:17:23;6.47;;;5.97;;
31282;SDS011;17915;52.540;13.604;2023-12-20T02:19:49;7.53;;;5.77;;
31282;SDS011;17915;52.540;13.604;2023-12-20T02:22:15;5.17;;;4.83;;
31282;SDS011;17915;52.540;13.604;2023-12-20T02:24:40;5.20;;;4.90;;
31282;SDS011;17915;52.540;13.604;2023-12-20T02:27:06;4.47;;;4.17;;
31282;SDS011;17915;52.540;13.604;2023-12-20T02:31:58;4.88;;;4.43;;
31282;SDS011;17915;52.540;13.604;2023-12-20T02:34:24;4.50;;;4.20;;
31282;SDS011;17915;52.540;13.604;2023-12-20T02:36:49;5.57;;;4.10;;
31282;SDS011;17915;52.540;13.604;2023-12-20T02:39:14;4.00;;;3.70;;
31282;SDS011;17915;52.540;13.604;2023-12-20T02:41:40;6.90;;;4.17;;
31282;SDS011;17915;52.540;13.604;2023-12-20T02:44:05;4.20;;;3.67;;
31282;SDS011;17915;52.540;13.604;2023-12-20T02:46:30;3.97;;;3.67;;
31282;SDS011;17915;52.540;13.604;2023-12-20T02:48:56;4.80;;;4.30;;
31282;SDS011;17915;52.540;13.604;2023-12-20T02:51:21;4.73;;;4.33;;
31282;SDS011;17915;52.540;13.604;2023-12-20T02:53:46;4.30;;;3.80;;
31282;SDS011;17915;52.540;13.604;2023-12-20T02:56:12;4.40;;;4.00;;
31282;SDS011;17915;52.540;13.604;2023-12-20T02:58:38;5.88;;;4.05;;
31282;SDS011;17915;52.540;13.604;2023-12-20T03:01:04;4.77;;;4.33;;
31282;SDS011;17915;52.540;13.604;2023-12-20T03:03:29;7.23;;;4.17;;
31282;SDS011;17915;52.540;13.604;2023-12-20T03:05:54;4.57;;;3.60;;
31282;SDS011;17915;52.540;13.604;2023-12-20T03:08:20;12.57;;;4.23;;
31282;SDS011;17915;52.540;13.604;2023-12-20T03:10:45;8.17;;;4.73;;
31282;SDS011;17915;52.540;13.604;2023-12-20T03:13:11;7.20;;;4.50;;
31282;SDS011;17915;52.540;13.604;2023-12-20T03:15:36;4.93;;;3.90;;
31282;SDS011;17915;52.540;13.604;2023-12-20T03:18:02;9.30;;;4.40;;
31282;SDS011;17915;52.540;13.604;2023-12-20T03:20:27;7.57;;;4.00;;
31282;SDS011;17915;52.540;13.604;2023-12-20T03:22:53;5.53;;;3.80;;
31282;SDS011;17915;52.540;13.604;2023-12-20T03:25:18;4.07;;;3.77;;
31282;SDS011;17915;52.540;13.604;2023-12-20T03:27:44;4.70;;;3.67;;
31282;SDS011;17915;52.540;13.604;2023-12-20T03:30:09;8.83;;;3.87;;
31282;SDS011;17915;52.540;13.604;2023-12-20T03:32:36;7.73;;;3.30;;
31282;SDS011;17915;52.540;13.604;2023-12-20T03:35:02;6.65;;;4.07;;
31282;SDS011;17915;52.540;13.604;2023-12-20T03:37:28;6.23;;;3.63;;
31282;SDS011;17915;52.540;13.604;2023-12-20T03:39:53;8.17;;;4.27;;
31282;SDS011;17915;52.540;13.604;2023-12-20T03:42:18;13.77;;;3.20;;
31282;SDS011;17915;52.540;13.604;2023-12-20T03:44:44;16.50;;;3.07;;
31282;SDS011;17915;52.540;13.604;2023-12-20T03:47:09;3.83;;;3.53;;
31282;SDS011;17915;52.540;13.604;2023-12-20T03:49:34;9.27;;;3.37;;
31282;SDS011;17915;52.540;13.604;2023-12-20T03:52:02;12.13;;;4.82;;
31282;SDS011;17915;52.540;13.604;2023-12-20T03:54:28;9.60;;;4.05;;
31282;SDS011;17915;52.540;13.604;2023-12-20T03:56:53;11.03;;;3.10;;
31282;SDS011;17915;52.540;13.604;2023-12-20T03:59:18;17.33;;;4.13;;
31282;SDS011;17915;52.540;13.604;2023-12-20T04:01:44;9.30;;;3.87;;
31282;SDS011;17915;52.540;13.604;2023-12-20T04:04:10;12.77;;;3.60;;
31282;SDS011;17915;52.540;13.604;2023-12-20T04:06:35;4.85;;;3.20;;
31282;SDS011;17915;52.540;13.604;2023-12-20T04:09:01;12.50;;;3.30;;
31282;SDS011;17915;52.540;13.604;2023-12-20T04:11:26;13.73;;;5.13;;
31282;SDS011;17915;52.540;13.604;2023-12-20T04:13:52;4.80;;;2.53;;
31282;SDS011;17915;52.540;13.604;2023-12-20T04:16:17;10.33;;;2.73;;
31282;SDS011;17915;52.540;13.604;2023-12-20T04:18:42;13.23;;;3.00;;
31282;SDS011;17915;52.540;13.604;2023-12-20T04:21:08;21.93;;;4.60;;
31282;SDS011;17915;52.540;13.604;2023-12-20T04:23:33;12.83;;;3.43;;
31282;SDS011;17915;52.540;13.604;2023-12-20T04:25:58;11.30;;;3.60;;
31282;SDS011;17915;52.540;13.604;2023-12-20T04:28:24;16.90;;;3.33;;
31282;SDS011;17915;52.540;13.604;2023-12-20T04:30:50;17.85;;;3.30;;
31282;SDS011;17915;52.540;13.604;2023-12-20T04:33:15;9.57;;;3.67;;
31282;SDS011;17915;52.540;13.604;2023-12-20T04:35:41;12.03;;;3.10;;
31282;SDS011;17915;52.540;13.604;2023-12-20T04:38:07;6.75;;;2.67;;
31282;SDS011;17915;52.540;13.604;2023-12-20T04:40:33;20.30;;;4.38;;
31282;SDS011;17915;52.540;13.604;2023-12-20T04:42:58;16.10;;;4.93;;
31282;SDS011;17915;52.540;13.604;2023-12-20T04:45:24;16.00;;;4.73;;
31282;SDS011;17915;52.540;13.604;2023-12-20T04:47:50;13.20;;;3.40;;
31282;SDS011;17915;52.540;13.604;2023-12-20T04:50:15;7.22;;;3.30;;
31282;SDS011;17915;52.540;13.604;2023-12-20T04:52:41;11.83;;;4.73;;
31282;SDS011;17915;52.540;13.604;2023-12-20T04:55:07;11.73;;;2.97;;
31282;SDS011;17915;52.540;13.604;2023-12-20T04:57:33;8.18;;;3.60;;
31282;SDS011;17915;52.540;13.604;2023-12-20T04:59:59;22.30;;;4.40;;
31282;SDS011;17915;52.540;13.604;2023-12-20T05:02:25;13.77;;;3.50;;
31282;SDS011;17915;52.540;13.604;2023-12-20T05:04:50;7.17;;;3.10;;
31282;SDS011;17915;52.540;13.604;2023-12-20T05:07:15;11.93;;;4.87;;
31282;SDS011;17915;52.540;13.604;2023-12-20T05:09:41;6.10;;;3.00;;
31282;SDS011;17915;52.540;13.604;2023-12-20T05:12:06;12.93;;;4.33;;
31282;SDS011;17915;52.540;13.604;2023-12-20T05:14:32;12.48;;;2.80;;
31282;SDS011;17915;52.540;13.604;2023-12-20T05:16:57;13.60;;;3.73;;
31282;SDS011;17915;52.540;13.604;2023-12-20T05:19:23;20.58;;;3.35;;
31282;SDS011;17915;52.540;13.604;2023-12-20T05:21:49;19.15;;;3.78;;
31282;SDS011;17915;52.540;13.604;2023-12-20T05:24:15;13.07;;;3.07;;
31282;SDS011;17915;52.540;13.604;2023-12-20T05:26:40;6.37;;;2.97;;
31282;SDS011;17915;52.540;13.604;2023-12-20T05:29:05;11.47;;;3.43;;
31282;SDS011;17915;52.540;13.604;2023-12-20T05:31:31;14.27;;;3.43;;
31282;SDS011;17915;52.540;13.604;2023-12-20T05:33:56;5.43;;;2.97;;
31282;SDS011;17915;52.540;13.604;2023-12-20T05:36:22;16.53;;;3.30;;
31282;SDS011;17915;52.540;13.604;2023-12-20T05:38:47;22.53;;;3.83;;
31282;SDS011;17915;52.540;13.604;2023-12-20T05:41:13;22.27;;;4.20;;
31282;SDS011;17915;52.540;13.604;2023-12-20T05:43:38;18.97;;;3.40;;
31282;SDS011;17915;52.540;13.604;2023-12-20T05:46:04;14.67;;;4.97;;
31282;SDS011;17915;52.540;13.604;2023-12-20T05:48:29;19.23;;;4.60;;
31282;SDS011;17915;52.540;13.604;2023-12-20T05:50:55;17.87;;;3.87;;
31282;SDS011;17915;52.540;13.604;2023-12-20T05:53:20;13.97;;;3.20;;
31282;SDS011;17915;52.540;13.604;2023-12-20T05:55:45;10.80;;;3.93;;
31282;SDS011;17915;52.540;13.604;2023-12-20T05:58:11;20.27;;;4.90;;
31282;SDS011;17915;52.540;13.604;2023-12-20T06:00:36;13.47;;;4.60;;
31282;SDS011;17915;52.540;13.604;2023-12-20T06:03:02;13.33;;;3.73;;
31282;SDS011;17915;52.540;13.604;2023-12-20T06:05:29;12.18;;;3.78;;
31282;SDS011;17915;52.540;13.604;2023-12-20T06:07:55;6.57;;;2.60;;
31282;SDS011;17915;52.540;13.604;2023-12-20T06:10:22;13.63;;;2.90;;
31282;SDS011;17915;52.540;13.604;2023-12-20T06:12:48;19.20;;;5.03;;
31282;SDS011;17915;52.540;13.604;2023-12-20T06:15:15;14.43;;;3.10;;
31282;SDS011;17915;52.540;13.604;2023-12-20T06:17:40;17.87;;;3.83;;
31282;SDS011;17915;52.540;13.604;2023-12-20T06:20:06;11.73;;;3.30;;
31282;SDS011;17915;52.540;13.604;2023-12-20T06:24:59;15.13;;;3.70;;
31282;SDS011;17915;52.540;13.604;2023-12-20T06:27:24;8.47;;;3.00;;
31282;SDS011;17915;52.540;13.604;2023-12-20T06:29:50;18.07;;;3.53;;
31282;SDS011;17915;52.540;13.604;2023-12-20T06:32:15;9.07;;;3.47;;
31282;SDS011;17915;52.540;13.604;2023-12-20T06:34:40;16.60;;;3.93;;
31282;SDS011;17915;52.540;13.604;2023-12-20T06:37:06;26.63;;;3.07;;
31282;SDS011;17915;52.540;13.604;2023-12-20T06:39:31;16.57;;;3.00;;
31282;SDS011;17915;52.540;13.604;2023-12-20T06:41:58;18.20;;;3.22;;
31282;SDS011;17915;52.540;13.604;2023-12-20T06:44:24;19.77;;;3.70;;
31282;SDS011;17915;52.540;13.604;2023-12-20T06:46:50;13.83;;;2.93;;
31282;SDS011;17915;52.540;13.604;2023-12-20T06:49:15;20.70;;;3.13;;
31282;SDS011;17915;52.540;13.604;2023-12-20T06:51:40;6.80;;;2.97;;
31282;SDS011;17915;52.540;13.604;2023-12-20T06:54:06;10.43;;;2.43;;
31282;SDS011;17915;52.540;13.604;2023-12-20T06:56:32;11.05;;;4.05;;
31282;SDS011;17915;52.540;13.604;2023-12-20T06:58:57;10.80;;;3.57;;
31282;SDS011;17915;52.540;13.604;2023-12-20T07:01:23;15.33;;;3.20;;
31282;SDS011;17915;52.540;13.604;2023-12-20T07:03:48;11.47;;;3.53;;
31282;SDS011;17915;52.540;13.604;2023-12-20T07:06:13;14.77;;;3.57;;
31282;SDS011;17915;52.540;13.604;2023-12-20T07:08:41;14.10;;;3.72;;
31282;SDS011;17915;52.540;13.604;2023-12-20T07:11:06;10.10;;;2.90;;
31282;SDS011;17915;52.540;13.604;2023-12-20T07:13:32;16.97;;;4.17;;
31282;SDS011;17915;52.540;13.604;2023-12-20T07:15:57;8.53;;;3.00;;
31282;SDS011;17915;52.540;13.604;2023-12-20T07:18:22;14.70;;;3.93;;
31282;SDS011;17915;52.540;13.604;2023-12-20T07:20:48;16.53;;;3.47;;
31282;SDS011;17915;52.540;13.604;2023-12-20T07:23:13;8.83;;;2.93;;
31282;SDS011;17915;52.540;13.604;2023-12-20T07:25:38;18.60;;;3.40;;
31282;SDS011;17915;52.540;13.604;2023-12-20T07:28:04;17.07;;;4.23;;
31282;SDS011;17915;52.540;13.604;2023-12-20T07:30:30;19.02;;;3.25;;
31282;SDS011;17915;52.540;13.604;2023-12-20T07:32:55;16.33;;;3.43;;
31282;SDS011;17915;52.540;13.604;2023-12-20T07:35:21;14.52;;;3.35;;
31282;SDS011;17915;52.540;13.604;2023-12-20T07:40:13;12.77;;;3.25;;
31282;SDS011;17915;52.540;13.604;2023-12-20T07:42:38;12.90;;;3.77;;
31282;SDS011;17915;52.540;13.604;2023-12-20T07:45:04;12.03;;;3.17;;
31282;SDS011;17915;52.540;13.604;2023-12-20T07:47:29;19.35;;;3.08;;
31282;SDS011;17915;52.540;13.604;2023-12-20T07:49:55;18.43;;;3.57;;
31282;SDS011;17915;52.540;13.604;2023-12-20T07:52:20;2.93;;;2.40;;
31282;SDS011;17915;52.540;13.604;2023-12-20T07:54:47;14.80;;;3.45;;
31282;SDS011;17915;52.540;13.604;2023-12-20T07:57:13;17.73;;;3.43;;
31282;SDS011;17915;52.540;13.604;2023-12-20T07:59:38;10.67;;;3.03;;
31282;SDS011;17915;52.540;13.604;2023-12-20T08:02:03;14.40;;;4.03;;
31282;SDS011;17915;52.540;13.604;2023-12-20T08:04:29;12.53;;;3.13;;
31282;SDS011;17915;52.540;13.604;2023-12-20T08:06:54;19.77;;;3.43;;
31282;SDS011;17915;52.540;13.604;2023-12-20T08:09:20;12.70;;;3.40;;
31282;SDS011;17915;52.540;13.604;2023-12-20T08:11:46;12.65;;;2.65;;
31282;SDS011;17915;52.540;13.604;2023-12-20T08:14:12;14.00;;;2.75;;
31282;SDS011;17915;52.540;13.604;2023-12-20T08:16:38;17.27;;;3.50;;
31282;SDS011;17915;52.540;13.604;2023-12-20T08:19:03;10.13;;;2.73;;
31282;SDS011;17915;52.540;13.604;2023-12-20T08:21:29;14.83;;;3.03;;
31282;SDS011;17915;52.540;13.604;2023-12-20T08:23:54;11.60;;;3.00;;
31282;SDS011;17915;52.540;13.604;2023-12-20T08:26:20;19.43;;;3.53;;
31282;SDS011;17915;52.540;13.604;2023-12-20T08:28:49;13.73;;;3.88;;
31282;SDS011;17915;52.540;13.604;2023-12-20T08:31:15;9.18;;;2.95;;
31282;SDS011;17915;52.540;13.604;2023-12-20T08:33:42;18.48;;;2.95;;
31282;SDS011;17915;52.540;13.604;2023-12-20T08:36:11;18.13;;;3.35;;
31282;SDS011;17915;52.540;13.604;2023-12-20T08:38:37;13.10;;;3.03;;
31282;SDS011;17915;52.540;13.604;2023-12-20T08:41:03;8.37;;;3.13;;
31282;SDS011;17915;52.540;13.604;2023-12-20T08:43:30;7.72;;;2.90;;
31282;SDS011;17915;52.540;13.604;2023-12-20T08:45:56;8.27;;;2.90;;
31282;SDS011;17915;52.540;13.604;2023-12-20T08:48:21;19.70;;;4.50;;
31282;SDS011;17915;52.540;13.604;2023-12-20T08:50:47;13.07;;;6.33;;
31282;SDS011;17915;52.540;13.604;2023-12-20T08:53:14;7.35;;;3.00;;
31282;SDS011;17915;52.540;13.604;2023-12-20T08:55:41;8.32;;;3.22;;
31282;SDS011;17915;52.540;13.604;2023-12-20T08:58:07;16.07;;;5.03;;
31282;SDS011;17915;52.540;13.604;2023-12-20T09:00:33;16.88;;;3.40;;
31282;SDS011;17915;52.540;13.604;2023-12-20T09:03:01;12.63;;;4.35;;
31282;SDS011;17915;52.540;13.604;2023-12-20T09:05:27;12.25;;;4.40;;
31282;SDS011;17915;52.540;13.604;2023-12-20T09:07:53;8.07;;;3.13;;
31282;SDS011;17915;52.540;13.604;2023-12-20T09:10:18;9.90;;;3.47;;
31282;SDS011;17915;52.540;13.604;2023-12-20T09:12:47;6.13;;;2.70;;
31282;SDS011;17915;52.540;13.604;2023-12-20T09:17:39;17.23;;;3.17;;
31282;SDS011;17915;52.540;13.604;2023-12-20T09:20:05;4.43;;;2.42;;
31282;SDS011;17915;52.540;13.604;2023-12-20T09:22:33;13.93;;;3.40;;
31282;SDS011;17915;52.540;13.604;2023-12-20T09:24:58;13.50;;;3.40;;
31282;SDS011;17915;52.540;13.604;2023-12-20T09:27:24;13.97;;;3.47;;
31282;SDS011;17915;52.540;13.604;2023-12-20T09:29:49;12.70;;;3.53;;
31282;SDS011;17915;52.540;13.604;2023-12-20T09:32:15;6.37;;;2.90;;
31282;SDS011;17915;52.540;13.604;2023-12-20T09:34:40;13.53;;;3.03;;
31282;SDS011;17915;52.540;13.604;2023-12-20T09:37:06;13.10;;;3.83;;
31282;SDS011;17915;52.540;13.604;2023-12-20T09:39:32;17.48;;;3.50;;
31282;SDS011;17915;52.540;13.604;2023-12-20T09:42:04;15.77;;;3.80;;
31282;SDS011;17915;52.540;13.604;2023-12-20T09:44:30;12.93;;;3.80;;
31282;SDS011;17915;52.540;13.604;2023-12-20T09:46:56;7.88;;;2.60;;
31282;SDS011;17915;52.540;13.604;2023-12-20T09:49:22;10.20;;;3.08;;
31282;SDS011;17915;52.540;13.604;2023-12-20T09:51:48;9.87;;;3.17;;
31282;SDS011;17915;52.540;13.604;2023-12-20T09:54:16;13.93;;;3.20;;
31282;SDS011;17915;52.540;13.604;2023-12-20T09:56:42;19.98;;;3.92;;
31282;SDS011;17915;52.540;13.604;2023-12-20T09:59:07;7.00;;;3.27;;
31282;SDS011;17915;52.540;13.604;2023-12-20T10:01:33;13.53;;;3.20;;
31282;SDS011;17915;52.540;13.604;2023-12-20T10:03:59;9.52;;;3.03;;
31282;SDS011;17915;52.540;13.604;2023-12-20T10:06:25;16.50;;;4.70;;
31282;SDS011;17915;52.540;13.604;2023-12-20T10:08:51;12.13;;;3.33;;
31282;SDS011;17915;52.540;13.604;2023-12-20T10:11:17;12.60;;;3.25;;
31282;SDS011;17915;52.540;13.604;2023-12-20T10:13:43;5.70;;;3.83;;
31282;SDS011;17915;52.540;13.604;2023-12-20T10:16:08;15.93;;;2.97;;
31282;SDS011;17915;52.540;13.604;2023-12-20T10:18:34;10.33;;;2.93;;
31282;SDS011;17915;52.540;13.604;2023-12-20T10:21:00;15.87;;;3.57;;
31282;SDS011;17915;52.540;13.604;2023-12-20T10:23:25;12.18;;;3.25;;
31282;SDS011;17915;52.540;13.604;2023-12-20T10:25:57;14.37;;;5.60;;
31282;SDS011;17915;52.540;13.604;2023-12-20T10:28:23;9.98;;;3.75;;
31282;SDS011;17915;52.540;13.604;2023-12-20T10:30:52;19.73;;;3.75;;
31282;SDS011;17915;52.540;13.604;2023-12-20T10:33:25;10.27;;;3.08;;
31282;SDS011;17915;52.540;13.604;2023-12-20T10:35:51;20.30;;;4.47;;
31282;SDS011;17915;52.540;13.604;2023-12-20T10:38:17;9.52;;;3.58;;
31282;SDS011;17915;52.540;13.604;2023-12-20T10:40:42;18.87;;;3.53;;
31282;SDS011;17915;52.540;13.604;2023-12-20T10:43:10;10.85;;;2.72;;
31282;SDS011;17915;52.540;13.604;2023-12-20T10:45:36;16.85;;;4.18;;
31282;SDS011;17915;52.540;13.604;2023-12-20T10:48:01;12.50;;;3.57;;
31282;SDS011;17915;52.540;13.604;2023-12-20T10:50:27;12.60;;;3.13;;
31282;SDS011;17915;52.540;13.604;2023-12-20T10:52:54;18.00;;;3.63;;
31282;SDS011;17915;52.540;13.604;2023-12-20T10:55:21;16.45;;;4.20;;
31282;SDS011;17915;52.540;13.604;2023-12-20T10:57:47;24.20;;;4.20;;
31282;SDS011;17915;52.540;13.604;2023-12-20T11:00:15;7.93;;;3.03;;
31282;SDS011;17915;52.540;13.604;2023-12-20T11:02:42;15.68;;;3.40;;
31282;SDS011;17915;52.540;13.604;2023-12-20T11:07:46;7.90;;;2.85;;
31282;SDS011;17915;52.540;13.604;2023-12-20T11:10:20;21.77;;;3.95;;
31282;SDS011;17915;52.540;13.604;2023-12-20T11:13:00;12.70;;;3.53;;
31282;SDS011;17915;52.540;13.604;2023-12-20T11:15:26;19.92;;;4.47;;
31282;SDS011;17915;52.540;13.604;2023-12-20T11:20:35;13.98;;;3.28;;
31282;SDS011;17915;52.540;13.604;2023-12-20T11:23:02;20.33;;;4.38;;
31282;SDS011;17915;52.540;13.604;2023-12-20T11:25:27;25.07;;;4.33;;
31282;SDS011;17915;52.540;13.604;2023-12-20T11:30:41;12.32;;;3.20;;
31282;SDS011;17915;52.540;13.604;2023-12-20T11:33:08;14.15;;;3.08;;
31282;SDS011;17915;52.540;13.604;2023-12-20T11:35:34;12.52;;;3.42;;
31282;SDS011;17915;52.540;13.604;2023-12-20T11:38:01;13.70;;;3.90;;
31282;SDS011;17915;52.540;13.604;2023-12-20T11:40:27;21.03;;;4.47;;
31282;SDS011;17915;52.540;13.604;2023-12-20T11:42:52;15.43;;;3.57;;
31282;SDS011;17915;52.540;13.604;2023-12-20T11:47:49;10.63;;;3.28;;
31282;SDS011;17915;52.540;13.604;2023-12-20T11:50:16;19.63;;;4.35;;
31282;SDS011;17915;52.540;13.604;2023-12-20T11:52:44;14.98;;;2.90;;
31282;SDS011;17915;52.540;13.604;2023-12-20T11:55:09;10.43;;;4.00;;
31282;SDS011;17915;52.540;13.604;2023-12-20T11:57:35;20.27;;;4.20;;
31282;SDS011;17915;52.540;13.604;2023-12-20T12:00:01;12.45;;;4.93;;
31282;SDS011;17915;52.540;13.604;2023-12-20T12:02:27;22.20;;;5.18;;
31282;SDS011;17915;52.540;13.604;2023-12-20T12:04:53;15.43;;;5.00;;
31282;SDS011;17915;52.540;13.604;2023-12-20T12:07:18;10.13;;;4.10;;
31282;SDS011;17915;52.540;13.604;2023-12-20T12:09:44;9.17;;;4.00;;
31282;SDS011;17915;52.540;13.604;2023-12-20T12:12:10;22.38;;;4.30;;
31282;SDS011;17915;52.540;13.604;2023-12-20T12:14:36;15.38;;;3.88;;
31282;SDS011;17915;52.540;13.604;2023-12-20T12:17:03;16.50;;;3.95;;
31282;SDS011;17915;52.540;13.604;2023-12-20T12:19:29;15.55;;;4.10;;
31282;SDS011;17915;52.540;13.604;2023-12-20T12:24:52;12.93;;;3.47;;
31282;SDS011;17915;52.540;13.604;2023-12-20T12:27:18;7.63;;;3.30;;
31282;SDS011;17915;52.540;13.604;2023-12-20T12:30:02;7.17;;;3.03;;
31282;SDS011;17915;52.540;13.604;2023-12-20T12:32:29;10.93;;;3.13;;
31282;SDS011;17915;52.540;13.604;2023-12-20T12:34:54;5.85;;;3.10;;
31282;SDS011;17915;52.540;13.604;2023-12-20T12:37:20;7.47;;;3.60;;
31282;SDS011;17915;52.540;13.604;2023-12-20T12:39:48;17.00;;;3.53;;
31282;SDS011;17915;52.540;13.604;2023-12-20T12:42:14;10.15;;;2.78;;
31282;SDS011;17915;52.540;13.604;2023-12-20T12:44:39;7.20;;;3.43;;
31282;SDS011;17915;52.540;13.604;2023-12-20T12:47:05;10.90;;;4.20;;
31282;SDS011;17915;52.540;13.604;2023-12-20T12:49:31;9.90;;;3.10;;
31282;SDS011;17915;52.540;13.604;2023-12-20T12:51:58;15.80;;;3.88;;
31282;SDS011;17915;52.540;13.604;2023-12-20T12:54:24;10.43;;;2.90;;
31282;SDS011;17915;52.540;13.604;2023-12-20T12:56:49;12.83;;;3.40;;
31282;SDS011;17915;52.540;13.604;2023-12-20T12:59:15;14.20;;;4.68;;
31282;SDS011;17915;52.540;13.604;2023-12-20T13:01:42;17.45;;;3.58;;
31282;SDS011;17915;52.540;13.604;2023-12-20T13:09:01;13.35;;;3.00;;
31282;SDS011;17915;52.540;13.604;2023-12-20T13:11:27;8.03;;;3.17;;
31282;SDS011;17915;52.540;13.604;2023-12-20T13:13:52;11.80;;;4.43;;
31282;SDS011;17915;52.540;13.604;2023-12-20T13:16:18;7.27;;;3.27;;
31282;SDS011;17915;52.540;13.604;2023-12-20T13:18:43;15.27;;;5.40;;
31282;SDS011;17915;52.540;13.604;2023-12-20T13:21:08;6.23;;;3.80;;
31282;SDS011;17915;52.540;13.604;2023-12-20T13:23:34;7.80;;;3.45;;
31282;SDS011;17915;52.540;13.604;2023-12-20T13:25:59;13.37;;;5.10;;
31282;SDS011;17915;52.540;13.604;2023-12-20T13:28:25;9.93;;;4.20;;
31282;SDS011;17915;52.540;13.604;2023-12-20T13:30:50;16.13;;;4.00;;
31282;SDS011;17915;52.540;13.604;2023-12-20T13:33:16;16.63;;;4.77;;
31282;SDS011;17915;52.540;13.604;2023-12-20T13:35:41;17.03;;;3.83;;
31282;SDS011;17915;52.540;13.604;2023-12-20T13:38:06;9.80;;;3.20;;
31282;SDS011;17915;52.540;13.604;2023-12-20T13:40:33;5.57;;;1.85;;
31282;SDS011;17915;52.540;13.604;2023-12-20T13:42:59;4.43;;;2.15;;
31282;SDS011;17915;52.540;13.604;2023-12-20T13:45:24;2.97;;;2.70;;
31282;SDS011;17915;52.540;13.604;2023-12-20T13:47:50;2.27;;;1.53;;
31282;SDS011;17915;52.540;13.604;2023-12-20T13:50:16;1.33;;;0.90;;
31282;SDS011;17915;52.540;13.604;2023-12-20T13:52:41;3.27;;;1.50;;
31282;SDS011;17915;52.540;13.604;2023-12-20T13:55:06;4.47;;;1.50;;
31282;SDS011;17915;52.540;13.604;2023-12-20T13:57:33;1.50;;;1.40;;
31282;SDS011;17915;52.540;13.604;2023-12-20T13:59:59;3.20;;;1.73;;
31282;SDS011;17915;52.540;13.604;2023-12-20T14:04:51;2.33;;;1.20;;
31282;SDS011;17915;52.540;13.604;2023-12-20T14:07:17;6.20;;;2.13;;
31282;SDS011;17915;52.540;13.604;2023-12-20T14:09:42;6.30;;;3.10;;
31282;SDS011;17915;52.540;13.604;2023-12-20T14:12:10;2.55;;;1.10;;
31282;SDS011;17915;52.540;13.604;2023-12-20T14:14:36;3.45;;;1.73;;
31282;SDS011;17915;52.540;13.604;2023-12-20T14:17:01;1.57;;;1.47;;
31282;SDS011;17915;52.540;13.604;2023-12-20T14:19:27;4.30;;;2.67;;
31282;SDS011;17915;52.540;13.604;2023-12-20T14:21:52;1.57;;;1.40;;
31282;SDS011;17915;52.540;13.604;2023-12-20T14:24:17;2.50;;;1.50;;
31282;SDS011;17915;52.540;13.604;2023-12-20T14:26:43;2.60;;;1.40;;
31282;SDS011;17915;52.540;13.604;2023-12-20T14:29:08;4.20;;;2.23;;
31282;SDS011;17915;52.540;13.604;2023-12-20T14:31:34;1.47;;;1.40;;
31282;SDS011;17915;52.540;13.604;2023-12-20T14:33:59;7.10;;;2.27;;
31282;SDS011;17915;52.540;13.604;2023-12-20T14:36:28;3.38;;;2.13;;
31282;SDS011;17915;52.540;13.604;2023-12-20T14:38:55;5.13;;;1.98;;
31282;SDS011;17915;52.540;13.604;2023-12-20T14:41:21;3.73;;;1.60;;
31282;SDS011;17915;52.540;13.604;2023-12-20T14:43:49;1.33;;;1.23;;
31282;SDS011;17915;52.540;13.604;2023-12-20T14:46:15;2.60;;;1.50;;
31282;SDS011;17915;52.540;13.604;2023-12-20T14:48:40;14.43;;;3.90;;
31282;SDS011;17915;52.540;13.604;2023-12-20T14:51:06;4.60;;;3.90;;
31282;SDS011;17915;52.540;13.604;2023-12-20T14:53:31;3.83;;;1.83;;
31282;SDS011;17915;52.540;13.604;2023-12-20T14:55:56;3.67;;;1.63;;